createdAt,value
2019-03-26T00:04:41.493Z,15.50
2019-03-26T00:09:43.987Z,15.70
2019-03-26T00:14:46.455Z,17.57
2019-03-26T00:19:48.925Z,18.67
2019-03-26T00:24:51.391Z,17.17
2019-03-26T00:29:53.857Z,16.77
2019-03-26T00:34:56.335Z,18.10
2019-03-26T00:39:58.801Z,17.30
2019-03-26T00:45:01.274Z,15.97
2019-03-26T00:50:03.758Z,16.73
2019-03-26T00:55:06.230Z,16.33
2019-03-26T01:00:08.691Z,15.80
2019-03-26T01:05:11.150Z,17.40
2019-03-26T01:10:13.627Z,17.53
2019-03-26T01:15:16.091Z,17.27
2019-03-26T01:20:18.564Z,21.93
2019-03-26T01:25:21.025Z,20.57
2019-03-26T01:30:23.495Z,20.23
2019-03-26T01:35:25.974Z,19.27
2019-03-26T01:40:28.443Z,19.80
2019-03-26T01:45:30.916Z,20.83
2019-03-26T01:50:33.392Z,18.17
2019-03-26T01:55:35.849Z,18.33
2019-03-26T02:00:38.315Z,17.03
2019-03-26T02:05:40.776Z,17.70
2019-03-26T02:10:43.260Z,18.27
2019-03-26T02:15:45.721Z,17.00
2019-03-26T02:20:48.186Z,17.87
2019-03-26T02:25:50.658Z,19.10
2019-03-26T02:30:53.135Z,19.23
2019-03-26T02:35:55.615Z,19.73
2019-03-26T02:40:58.089Z,19.93
2019-03-26T02:46:00.572Z,20.90
2019-03-26T02:51:03.032Z,22.87
2019-03-26T02:56:05.540Z,21.80
2019-03-26T03:01:07.967Z,20.90
2019-03-26T03:06:10.439Z,23.23
2019-03-26T03:11:12.906Z,23.40
2019-03-26T03:16:15.497Z,23.23
2019-03-26T03:21:17.910Z,24.00
2019-03-26T03:26:20.388Z,23.83
2019-03-26T03:31:22.860Z,24.67
2019-03-26T03:36:25.333Z,24.50
2019-03-26T03:41:27.796Z,24.23
2019-03-26T03:46:30.290Z,25.33
2019-03-26T03:51:32.770Z,24.73
2019-03-26T03:56:35.243Z,22.67
2019-03-26T04:01:37.701Z,22.23
2019-03-26T04:06:40.168Z,25.13
2019-03-26T04:11:42.650Z,23.60
2019-03-26T04:16:45.138Z,23.10
2019-03-26T04:21:47.596Z,22.00
2019-03-26T04:26:50.063Z,23.37
2019-03-26T04:31:52.544Z,24.63
2019-03-26T04:36:55.000Z,22.67
2019-03-26T04:41:57.474Z,21.13
2019-03-26T04:46:59.947Z,21.30
2019-03-26T04:52:02.410Z,19.27
2019-03-26T04:57:04.883Z,19.30
2019-03-26T05:02:07.352Z,20.50
2019-03-26T05:07:09.811Z,20.57
2019-03-26T05:12:12.288Z,19.30
2019-03-26T05:17:14.749Z,20.50
2019-03-26T05:22:24.175Z,19.17
2019-03-26T05:27:19.695Z,19.03
2019-03-26T05:32:24.769Z,21.40
2019-03-26T05:37:27.236Z,21.53
2019-03-26T05:42:29.713Z,21.53
2019-03-26T05:47:32.190Z,21.17
2019-03-26T05:52:34.675Z,18.47
2019-03-26T05:57:37.149Z,18.27
2019-03-26T06:02:39.606Z,19.90
2019-03-26T06:07:42.069Z,16.80
2019-03-26T06:12:44.540Z,16.63
2019-03-26T06:17:48.661Z,14.57
2019-03-26T06:22:49.498Z,17.20
2019-03-26T06:27:52.532Z,17.10
2019-03-26T06:32:54.998Z,15.50
2019-03-26T06:37:57.476Z,16.33
2019-03-26T06:42:59.936Z,15.00
2019-03-26T06:48:04.235Z,14.90
2019-03-26T06:53:04.904Z,14.43
2019-03-26T06:58:07.358Z,14.33
2019-03-26T07:03:09.864Z,14.17
2019-03-26T07:08:12.334Z,13.83
2019-03-26T07:13:14.825Z,13.57
2019-03-26T07:18:17.302Z,12.13
2019-03-26T07:23:19.742Z,10.30
2019-03-26T07:28:22.205Z,8.73
2019-03-26T07:33:24.715Z,8.90
2019-03-26T07:38:27.163Z,8.57
2019-03-26T07:43:29.627Z,8.77
2019-03-26T07:48:32.087Z,9.47
2019-03-26T07:53:34.567Z,8.90
2019-03-26T07:58:37.024Z,9.13
2019-03-26T08:03:39.494Z,9.23
2019-03-26T08:08:41.970Z,9.60
2019-03-26T08:13:44.453Z,17.43
2019-03-26T08:18:46.900Z,8.30
2019-03-26T08:23:49.520Z,8.13
2019-03-26T08:28:51.986Z,7.23
2019-03-26T08:33:54.453Z,7.23
2019-03-26T08:38:56.923Z,6.10
2019-03-26T08:43:59.390Z,5.93
2019-03-26T08:49:01.871Z,7.07
2019-03-26T08:54:04.336Z,6.70
2019-03-26T08:59:08.914Z,9.10
2019-03-26T09:04:09.529Z,6.40
2019-03-26T09:09:11.997Z,6.30
2019-03-26T09:14:14.459Z,5.17
2019-03-26T09:19:18.881Z,5.07
2019-03-26T09:24:21.238Z,5.50
2019-03-26T09:29:26.447Z,5.07
2019-03-26T09:34:28.915Z,4.77
2019-03-26T09:39:31.369Z,6.00
2019-03-26T09:44:33.828Z,6.23
2019-03-26T09:49:36.325Z,6.37
2019-03-26T09:54:38.838Z,6.30
2019-03-26T09:59:41.320Z,7.33
2019-03-26T10:04:43.797Z,7.07
2019-03-26T10:09:51.675Z,6.77
2019-03-26T10:14:54.147Z,6.90
2019-03-26T10:19:56.613Z,7.30
2019-03-26T10:24:59.084Z,7.77
2019-03-26T10:30:01.574Z,7.90
2019-03-26T10:35:04.020Z,6.97
2019-03-26T10:40:06.495Z,7.93
2019-03-26T10:45:09.058Z,9.53
2019-03-26T10:50:11.532Z,7.67
2019-03-26T10:55:13.988Z,8.07
2019-03-26T11:00:16.450Z,8.40
2019-03-26T11:05:18.916Z,8.33
2019-03-26T11:10:21.427Z,9.27
2019-03-26T11:15:23.906Z,9.50
2019-03-26T11:20:26.397Z,8.63
2019-03-26T11:25:28.856Z,8.77
2019-03-26T11:30:31.306Z,8.67
2019-03-26T11:35:33.789Z,9.50
2019-03-26T11:40:36.243Z,8.97
2019-03-26T11:45:38.716Z,11.57
2019-03-26T11:50:41.196Z,13.20
2019-03-26T11:55:43.662Z,14.60
2019-03-26T12:00:46.144Z,15.27
2019-03-26T12:05:48.629Z,14.47
2019-03-26T12:10:51.113Z,15.80
2019-03-26T12:15:53.599Z,17.73
2019-03-26T12:20:56.062Z,13.27
2019-03-26T12:25:58.529Z,12.23
2019-03-26T12:31:00.996Z,11.80
2019-03-26T12:36:03.467Z,12.57
2019-03-26T12:41:05.931Z,13.80
2019-03-26T12:46:11.192Z,16.57
2019-03-26T12:51:13.604Z,13.50
2019-03-26T12:56:16.084Z,13.73
2019-03-26T13:01:18.541Z,12.97
2019-03-26T13:06:21.018Z,12.43
2019-03-26T13:11:23.505Z,12.70
2019-03-26T13:16:25.968Z,12.83
2019-03-26T13:21:28.448Z,12.00
2019-03-26T13:26:30.901Z,13.47
2019-03-26T13:31:33.355Z,12.63
2019-03-26T13:36:35.849Z,12.87
2019-03-26T13:41:38.332Z,13.33
2019-03-26T13:46:40.807Z,13.03
2019-03-26T13:51:43.277Z,13.47
2019-03-26T13:56:45.751Z,12.60
2019-03-26T14:01:48.234Z,12.70
2019-03-26T14:06:52.589Z,12.70
2019-03-26T14:11:53.180Z,12.63
2019-03-26T14:16:55.661Z,11.00
2019-03-26T14:21:58.117Z,11.93
2019-03-26T14:27:00.591Z,14.90
2019-03-26T14:32:03.065Z,13.63
2019-03-26T14:37:05.560Z,15.87
2019-03-26T14:42:08.066Z,16.37
2019-03-26T14:47:10.534Z,16.70
2019-03-26T14:52:13.034Z,16.17
2019-03-26T14:57:15.515Z,15.67
2019-03-26T15:02:18.002Z,14.03
2019-03-26T15:07:20.492Z,13.80
2019-03-26T15:12:22.969Z,13.53
2019-03-26T15:17:25.458Z,12.77
2019-03-26T15:22:27.951Z,13.30
2019-03-26T15:27:30.458Z,14.23
2019-03-26T15:32:32.938Z,13.63
2019-03-26T15:37:35.433Z,13.33
2019-03-26T15:42:37.918Z,13.67
2019-03-26T15:47:40.422Z,12.90
2019-03-26T15:52:42.918Z,13.00
2019-03-26T15:57:45.398Z,14.17
2019-03-26T16:02:47.870Z,14.10
2019-03-26T16:07:50.352Z,14.13
2019-03-26T16:12:52.849Z,13.30
2019-03-26T16:17:55.329Z,14.00
2019-03-26T16:22:57.782Z,13.07
2019-03-26T16:28:00.275Z,13.73
2019-03-26T16:33:02.749Z,15.27
2019-03-26T16:38:05.237Z,13.37
2019-03-26T16:43:07.719Z,12.87
2019-03-26T16:48:10.210Z,12.00
2019-03-26T16:53:12.696Z,12.63
2019-03-26T16:58:15.190Z,12.70
2019-03-26T17:03:30.429Z,12.40
2019-03-26T17:08:22.589Z,12.40
2019-03-26T17:13:22.661Z,12.53
2019-03-26T17:18:25.155Z,12.20
2019-03-26T17:23:27.653Z,12.47
2019-03-26T17:28:30.155Z,12.93
2019-03-26T17:33:32.682Z,14.80
2019-03-26T17:38:35.151Z,13.33
2019-03-26T17:43:37.637Z,13.60
2019-03-26T17:48:40.119Z,15.43
2019-03-26T17:53:42.587Z,14.53
2019-03-26T17:58:45.089Z,13.57
2019-03-26T18:03:47.572Z,13.07
2019-03-26T18:08:50.047Z,13.23
2019-03-26T18:13:52.507Z,13.83
2019-03-26T18:18:55.163Z,15.13
2019-03-26T18:23:57.481Z,13.60
2019-03-26T18:28:59.963Z,13.93
2019-03-26T18:34:02.523Z,14.30
2019-03-26T18:39:04.899Z,15.10
2019-03-26T18:44:07.370Z,15.27
2019-03-26T18:49:09.875Z,15.37
2019-03-26T18:54:12.351Z,16.20
2019-03-26T18:59:14.826Z,16.00
2019-03-26T19:04:17.328Z,15.30
2019-03-26T19:09:19.842Z,12.93
2019-03-26T19:14:22.318Z,13.40
2019-03-26T19:19:24.802Z,13.47
2019-03-26T19:24:27.279Z,15.73
2019-03-26T19:29:29.747Z,16.23
2019-03-26T19:34:32.252Z,16.10
2019-03-26T19:39:34.738Z,16.60
2019-03-26T19:44:37.229Z,16.87
2019-03-26T19:49:39.716Z,17.83
2019-03-26T19:54:42.211Z,16.53
2019-03-26T19:59:44.686Z,18.70
2019-03-26T20:04:47.183Z,19.63
2019-03-26T20:09:49.679Z,20.47
2019-03-26T20:14:52.152Z,22.27
2019-03-26T20:19:54.624Z,20.50
2019-03-26T20:24:57.100Z,34.27
2019-03-26T20:29:59.631Z,21.63
2019-03-26T20:35:02.131Z,20.10
2019-03-26T20:40:07.615Z,20.97
2019-03-26T20:45:10.122Z,20.17
2019-03-26T20:50:12.574Z,21.27
2019-03-26T20:55:15.061Z,19.03
2019-03-26T21:00:17.539Z,19.43
2019-03-26T21:05:20.060Z,19.37
2019-03-26T21:10:22.545Z,20.63
2019-03-26T21:15:25.337Z,18.77
2019-03-26T21:20:27.826Z,18.80
2019-03-26T21:25:30.380Z,19.00
2019-03-26T21:30:32.784Z,19.23
2019-03-26T21:35:35.262Z,19.33
2019-03-26T21:40:37.729Z,19.20
2019-03-26T21:45:40.217Z,20.43
2019-03-26T21:50:42.706Z,20.63
2019-03-26T21:55:45.202Z,20.80
2019-03-26T22:00:47.666Z,20.03
2019-03-26T22:05:50.153Z,20.93
2019-03-26T22:10:52.633Z,20.63
2019-03-26T22:15:55.101Z,20.07
2019-03-26T22:20:57.577Z,17.77
2019-03-26T22:26:00.062Z,18.37
2019-03-26T22:31:02.569Z,18.73
2019-03-26T22:36:05.046Z,18.00
2019-03-26T22:41:07.548Z,18.90
2019-03-26T22:46:10.053Z,17.63
2019-03-26T22:51:12.551Z,17.93
2019-03-26T22:56:15.019Z,19.13
2019-03-26T23:01:17.504Z,17.07
2019-03-26T23:06:19.994Z,18.83
2019-03-26T23:11:22.442Z,17.63
2019-03-26T23:16:24.932Z,18.17
2019-03-26T23:21:27.395Z,16.53
2019-03-26T23:26:29.873Z,15.47
2019-03-26T23:31:32.332Z,15.73
2019-03-26T23:36:34.800Z,15.80
2019-03-26T23:41:39.679Z,18.03
2019-03-26T23:46:39.749Z,19.87
2019-03-26T23:51:42.240Z,16.13
2019-03-26T23:56:44.703Z,15.37
